Time;durP1;ratioP1;P1;durP2;ratioP2;P2;SDS_P1;SDS_P2;PMS_P1;PMS_P2;Temp;Humidity;BMP_temperature;BMP_pressure;BME280_temperature;BME280_humidity;BME280_pressure;Samples;Min_cycle;Max_cycle;Signal;HPM_P1;HPM_P2
2021/11/07 16:54:33;;;;;;;;;;;7.80;99.90;;;;;;5072209;28;19912;-91
2021/11/07 16:56:59;;;;;;;;;;;7.80;99.90;;;;;;5070302;28;19931;-92
2021/11/07 16:59:31;;;;;;;;;;;7.90;99.90;;;;;;5070744;28;20409;-92
2021/11/07 17:02:11;;;;;;;;;;;8.00;99.90;;;;;;5070197;28;19947;-92
2021/11/07 17:04:54;;;;;;;;;;;8.10;99.90;;;;;;5070115;28;19916;-93
2021/11/07 17:07:39;;;;;;;;;;;8.20;99.90;;;;;;5070100;28;19909;-92
2021/11/07 17:10:05;;;;;;;;;;;8.30;99.90;;;;;;5070055;28;20319;-93
2021/11/07 17:12:34;;;;;;;;;;;8.40;99.90;;;;;;5070009;28;19951;-90
2021/11/07 17:17:33;;;;;;;;;;;8.50;99.90;;;;;;5071425;28;19915;-92
2021/11/07 17:20:08;;;;;;;;;;;8.50;99.90;;;;;;5069923;28;19909;-91
2021/11/07 17:25:09;;;;;;;;;;;8.50;99.90;;;;;;5070945;28;20277;-91
2021/11/07 17:30:10;;;;;;;;;;;8.50;99.90;;;;;;5071130;28;19959;-91
2021/11/07 17:35:37;;;;;;;;;;;8.40;99.90;;;;;;5070449;28;20289;-93
2021/11/07 17:38:15;;;;;;;;;;;8.40;99.90;;;;;;5071348;28;19909;-92
2021/11/07 17:56:45;;;;;;;;;;;8.20;99.90;;;;;;5070903;28;19915;-93
2021/11/07 17:59:11;;;;;;;;;;;8.20;99.90;;;;;;5069237;28;19913;-93
2021/11/07 18:01:37;;;;;;;;;;;8.20;99.90;;;;;;5065226;28;19909;-90
2021/11/07 18:04:03;;;;;;;;;;;8.10;99.90;;;;;;5055663;28;19963;-93
2021/11/07 18:06:33;;;;;;;;;;;8.10;99.90;;;;;;5055594;28;19984;-90
2021/11/07 18:09:04;;;;;;;;;;;8.10;99.90;;;;;;5056386;28;19913;-90
2021/11/07 18:11:30;;;;;;;;;;;8.10;99.90;;;;;;5055785;28;19959;-93
2021/11/07 18:13:59;;;;;;;;;;;8.00;99.90;;;;;;5055564;28;20273;-94
2021/11/07 18:16:27;;;;;;;;;;;8.10;99.90;;;;;;5057000;28;19909;-94
2021/11/07 18:18:54;;;;;;;;;;;8.00;99.90;;;;;;5041754;28;19913;-92
2021/11/07 18:21:22;;;;;;;;;;;8.00;99.90;;;;;;5045425;28;19913;-91
2021/11/07 18:23:49;;;;;;;;;;;8.00;99.90;;;;;;5052298;28;19913;-92
2021/11/07 18:26:16;;;;;;;;;;;8.00;99.90;;;;;;5036197;28;19919;-92
2021/11/07 18:28:42;;;;;;;;;;;7.90;99.90;;;;;;5035514;28;20415;-92
2021/11/07 18:31:08;;;;;;;;;;;7.90;99.90;;;;;;5052542;28;19948;-93
2021/11/07 18:33:34;;;;;;;;;;;7.90;99.90;;;;;;5055160;28;19971;-92
2021/11/07 18:36:01;;;;;;;;;;;7.90;99.90;;;;;;5047871;28;19910;-93
2021/11/07 18:38:29;;;;;;;;;;;7.90;99.90;;;;;;5038699;28;19963;-92
2021/11/07 18:40:56;;;;;;;;;;;7.90;99.90;;;;;;5055361;28;19909;-93
2021/11/07 18:43:23;;;;;;;;;;;7.90;99.90;;;;;;5055220;28;19909;-94
2021/11/07 18:45:49;;;;;;;;;;;7.90;99.90;;;;;;5055112;28;20285;-92
2021/11/07 18:48:14;;;;;;;;;;;7.90;99.90;;;;;;5053849;28;20444;-90
2021/11/07 18:50:41;;;;;;;;;;;7.90;99.90;;;;;;5045834;28;20055;-91
2021/11/07 18:53:06;;;;;;;;;;;7.90;99.90;;;;;;5034903;28;19916;-92
2021/11/07 18:55:34;;;;;;;;;;;7.90;99.90;;;;;;5034888;28;19909;-91
2021/11/07 18:58:00;;;;;;;;;;;7.90;99.90;;;;;;5035988;28;19963;-92
2021/11/07 19:00:32;;;;;;;;;;;7.90;99.90;;;;;;5036121;28;19913;-90
2021/11/07 19:03:01;;;;;;;;;;;7.90;99.90;;;;;;5039791;28;19910;-91
2021/11/07 19:05:27;;;;;;;;;;;7.90;99.90;;;;;;5034552;28;20312;-90
2021/11/07 19:07:53;;;;;;;;;;;7.90;99.90;;;;;;5034499;28;19909;-91
2021/11/07 19:10:19;;;;;;;;;;;7.90;99.90;;;;;;5034390;28;19917;-91
2021/11/07 19:12:45;;;;;;;;;;;7.90;99.90;;;;;;5040816;28;19920;-92
2021/11/07 19:15:11;;;;;;;;;;;7.80;99.90;;;;;;5052532;28;19919;-91
2021/11/07 19:17:37;;;;;;;;;;;7.80;99.90;;;;;;5054257;28;20304;-92
2021/11/07 19:20:04;;;;;;;;;;;7.80;99.90;;;;;;5054299;28;19915;-91
2021/11/07 19:22:30;;;;;;;;;;;7.80;99.90;;;;;;5054176;28;19936;-91
2021/11/07 19:24:56;;;;;;;;;;;7.80;99.90;;;;;;5054109;28;19916;-91
2021/11/07 19:27:22;;;;;;;;;;;7.80;99.90;;;;;;5054164;28;19909;-94
2021/11/07 19:29:50;;;;;;;;;;;7.80;99.90;;;;;;5055003;28;19912;-93
2021/11/07 19:32:16;;;;;;;;;;;7.80;99.90;;;;;;5054376;28;19909;-94
2021/11/07 19:34:43;;;;;;;;;;;7.80;99.90;;;;;;5054435;28;19915;-96
2021/11/07 19:37:09;;;;;;;;;;;7.80;99.90;;;;;;5054357;28;20346;-94
2021/11/07 19:40:31;;;;;;;;;;;7.80;99.90;;;;;;5113509;27;19912;-92
2021/11/07 19:42:57;;;;;;;;;;;7.80;99.90;;;;;;5145590;27;19912;-93
2021/11/07 19:45:25;;;;;;;;;;;7.80;99.90;;;;;;5111167;28;19908;-92
2021/11/07 19:47:53;;;;;;;;;;;7.80;99.90;;;;;;5110805;28;19908;-89
2021/11/07 19:50:24;;;;;;;;;;;7.90;99.90;;;;;;5110920;28;19912;-90
2021/11/07 19:52:50;;;;;;;;;;;7.80;99.90;;;;;;5109246;28;19912;-89
2021/11/07 19:55:17;;;;;;;;;;;7.80;99.90;;;;;;5111617;28;19912;-89
2021/11/07 19:57:43;;;;;;;;;;;7.80;99.90;;;;;;5111927;28;20276;-90
2021/11/07 20:10:22;;;;;;;;;;;7.90;99.90;;;;;;5111668;28;19908;-89
2021/11/07 20:12:48;;;;;;;;;;;7.90;99.90;;;;;;5110366;28;20356;-91
2021/11/07 20:15:14;;;;;;;;;;;7.90;99.90;;;;;;5110137;28;19908;-92
2021/11/07 20:17:39;;;;;;;;;;;7.90;99.90;;;;;;5110168;28;19908;-91
2021/11/07 20:20:06;;;;;;;;;;;7.90;99.90;;;;;;5110319;28;19981;-91
2021/11/07 20:22:37;;;;;;;;;;;7.90;99.90;;;;;;5110574;28;19912;-93
2021/11/07 20:25:03;;;;;;;;;;;8.00;99.90;;;;;;5110608;28;19912;-93
2021/11/07 20:27:30;;;;;;;;;;;8.00;99.90;;;;;;5110402;28;19998;-95
2021/11/07 20:29:56;;;;;;;;;;;8.00;99.90;;;;;;5110562;28;19915;-92
2021/11/07 20:32:24;;;;;;;;;;;8.00;99.90;;;;;;5110558;28;19912;-93
2021/11/07 20:34:59;;;;;;;;;;;8.00;99.90;;;;;;5111187;28;19908;-94
2021/11/07 20:37:30;;;;;;;;;;;8.10;99.90;;;;;;5110388;28;20006;-93
2021/11/07 20:40:02;;;;;;;;;;;8.10;99.90;;;;;;5109921;28;20265;-95
2021/11/07 20:42:30;;;;;;;;;;;8.10;99.90;;;;;;5111111;28;19908;-94
2021/11/07 20:45:08;;;;;;;;;;;8.10;99.90;;;;;;5110247;28;19908;-92
2021/11/07 20:52:49;;;;;;;;;;;8.20;99.90;;;;;;5098428;28;20450;-94
2021/11/07 20:58:12;;;;;;;;;;;8.20;99.90;;;;;;5097897;28;20371;-93
2021/11/07 21:00:49;;;;;;;;;;;8.20;99.90;;;;;;5096558;28;20431;-94
2021/11/07 21:05:48;;;;;;;;;;;8.20;99.90;;;;;;5090149;28;19909;-90
2021/11/07 21:08:19;;;;;;;;;;;8.20;99.90;;;;;;5095717;28;19908;-90
2021/11/07 21:11:04;;;;;;;;;;;8.20;99.90;;;;;;5096947;28;19915;-94
2021/11/07 21:13:33;;;;;;;;;;;8.30;99.90;;;;;;5076177;28;20418;-93
2021/11/07 21:18:39;;;;;;;;;;;8.30;99.90;;;;;;5077163;28;20016;-93
